createdAt,value
2019-06-20T00:02:39.112Z,74.27
2019-06-20T00:07:45.079Z,74.38
2019-06-20T00:13:00.003Z,74.67
2019-06-20T00:17:58.866Z,74.50
2019-06-20T00:23:04.935Z,74.96
2019-06-20T00:28:10.906Z,74.83
2019-06-20T00:33:18.107Z,74.94
2019-06-20T00:38:23.973Z,75.04
2019-06-20T00:43:29.950Z,75.13
2019-06-20T00:48:36.017Z,75.44
2019-06-20T00:53:42.142Z,75.93
2019-06-20T00:58:48.165Z,76.66
2019-06-20T01:03:54.352Z,77.03
2019-06-20T01:09:00.208Z,77.11
2019-06-20T01:14:07.919Z,77.13
2019-06-20T01:19:13.888Z,77.43
2019-06-20T01:24:19.864Z,78.12
2019-06-20T01:29:25.783Z,78.19
2019-06-20T01:34:31.709Z,78.33
2019-06-20T01:39:37.799Z,78.24
2019-06-20T01:44:43.956Z,78.36
2019-06-20T01:49:50.231Z,78.08
2019-06-20T01:54:56.298Z,78.58
2019-06-20T02:00:03.875Z,78.58
2019-06-20T02:05:11.535Z,78.62
2019-06-20T02:10:18.208Z,78.83
2019-06-20T02:15:24.172Z,78.90
2019-06-20T02:20:50.219Z,78.99
2019-06-20T02:25:56.190Z,79.04
2019-06-20T02:31:02.474Z,79.41
2019-06-20T02:36:08.751Z,79.51
2019-06-20T02:41:15.331Z,79.59
2019-06-20T02:46:21.296Z,79.65
2019-06-20T02:51:28.020Z,79.58
2019-06-20T02:56:33.994Z,79.90
2019-06-20T03:01:39.829Z,79.61
2019-06-20T03:06:46.206Z,79.45
2019-06-20T03:11:52.145Z,79.21
2019-06-20T03:16:58.356Z,79.02
2019-06-20T03:22:04.327Z,78.48
2019-06-20T03:27:10.410Z,78.05
2019-06-20T03:32:16.386Z,77.64
2019-06-20T03:37:22.375Z,76.19
2019-06-20T03:42:28.326Z,75.79
2019-06-20T03:47:34.282Z,75.27
2019-06-20T03:52:40.249Z,75.25
2019-06-20T03:57:46.221Z,74.18
2019-06-20T04:02:52.189Z,73.22
2019-06-20T04:07:58.983Z,72.80
2019-06-20T04:13:05.421Z,72.43
2019-06-20T04:18:11.332Z,72.73
2019-06-20T04:23:17.302Z,71.21
2019-06-20T04:28:23.173Z,70.70
2019-06-20T04:33:29.554Z,70.29
2019-06-20T04:38:35.527Z,69.64
2019-06-20T04:43:42.932Z,69.12
2019-06-20T04:48:49.046Z,68.42
2019-06-20T04:53:55.427Z,68.00
2019-06-20T04:59:01.562Z,66.92
2019-06-20T05:04:07.740Z,66.29
2019-06-20T05:09:13.863Z,64.62
2019-06-20T05:14:19.939Z,64.31
2019-06-20T05:19:26.145Z,62.93
2019-06-20T05:24:32.229Z,62.10
2019-06-20T05:29:38.518Z,61.74
2019-06-20T05:34:44.684Z,60.92
2019-06-20T05:39:51.066Z,58.36
2019-06-20T05:44:57.382Z,57.78
2019-06-20T05:50:04.847Z,56.55
2019-06-20T05:55:11.645Z,55.33
2019-06-20T06:00:19.926Z,54.70
2019-06-20T06:05:26.650Z,53.98
2019-06-20T06:10:33.028Z,53.84
2019-06-20T06:15:39.151Z,52.83
2019-06-20T06:20:45.692Z,53.84
2019-06-20T06:25:52.305Z,52.57
2019-06-20T06:30:58.354Z,53.09
2019-06-20T06:36:04.831Z,52.15
2019-06-20T06:41:11.312Z,51.07
2019-06-20T06:46:17.646Z,53.81
2019-06-20T06:51:23.838Z,52.54
2019-06-20T06:56:30.225Z,54.55
2019-06-20T07:01:36.987Z,54.07
2019-06-20T07:06:43.227Z,53.01
2019-06-20T07:11:49.285Z,53.01
2019-06-20T07:17:00.325Z,54.07
2019-06-20T07:22:02.933Z,54.36
2019-06-20T07:27:09.155Z,53.63
2019-06-20T07:32:15.235Z,54.26
2019-06-20T07:37:21.460Z,55.60
2019-06-20T07:42:27.675Z,54.77
2019-06-20T07:47:34.160Z,55.02
2019-06-20T07:52:40.258Z,54.61
2019-06-20T07:57:46.705Z,55.80
2019-06-20T08:02:52.867Z,55.22
2019-06-20T08:08:00.019Z,53.59
2019-06-20T08:13:11.702Z,53.47
2019-06-20T08:18:18.109Z,53.64
2019-06-20T08:23:25.081Z,54.83
2019-06-20T08:28:31.311Z,52.31
2019-06-20T08:33:37.526Z,51.03
2019-06-20T08:38:43.545Z,50.61
2019-06-20T08:43:49.559Z,50.72
2019-06-20T08:48:56.616Z,51.69
2019-06-20T08:54:03.581Z,51.59
2019-06-20T08:59:23.430Z,51.35
2019-06-20T09:04:22.202Z,51.50
2019-06-20T09:09:26.498Z,51.62
2019-06-20T09:14:32.582Z,51.91
2019-06-20T09:19:38.640Z,51.27
2019-06-20T09:24:44.796Z,51.44
2019-06-20T09:29:51.569Z,51.98
2019-06-20T09:34:59.503Z,52.12
2019-06-20T09:40:08.260Z,51.55
2019-06-20T09:45:18.435Z,51.92
2019-06-20T09:50:26.021Z,51.36
2019-06-20T09:55:32.173Z,51.44
2019-06-20T10:00:40.156Z,51.22
2019-06-20T10:05:47.619Z,50.52
2019-06-20T10:10:54.346Z,51.23
2019-06-20T10:16:00.387Z,49.59
2019-06-20T10:21:06.812Z,49.45
2019-06-20T10:26:13.134Z,48.65
2019-06-20T10:31:19.319Z,48.93
2019-06-20T10:36:25.494Z,48.94
2019-06-20T10:41:31.561Z,48.84
2019-06-20T10:46:37.720Z,47.84
2019-06-20T10:51:47.655Z,47.38
2019-06-20T10:56:53.786Z,47.77
2019-06-20T11:01:59.857Z,45.69
2019-06-20T11:07:06.071Z,47.22
2019-06-20T11:12:12.352Z,47.66
2019-06-20T11:17:18.474Z,45.83
2019-06-20T11:22:24.541Z,45.02
2019-06-20T11:27:31.533Z,46.28
2019-06-20T11:32:38.325Z,46.42
2019-06-20T11:37:45.446Z,47.43
2019-06-20T11:42:51.610Z,46.82
2019-06-20T11:47:57.605Z,48.52
2019-06-20T11:53:04.062Z,46.53
2019-06-20T11:58:10.135Z,46.51
2019-06-20T12:03:19.592Z,44.98
2019-06-20T12:08:27.964Z,42.55
2019-06-20T12:13:33.979Z,44.14
2019-06-20T12:18:41.493Z,42.93
2019-06-20T12:23:48.998Z,42.62
2019-06-20T12:28:55.212Z,40.71
2019-06-20T12:34:01.527Z,42.52
2019-06-20T12:39:08.761Z,41.23
2019-06-20T12:44:14.997Z,40.32
2019-06-20T12:49:23.849Z,42.07
2019-06-20T12:54:30.250Z,43.90
2019-06-20T12:59:38.080Z,43.60
2019-06-20T13:04:44.389Z,44.73
2019-06-20T13:09:50.731Z,47.08
2019-06-20T13:14:57.275Z,47.40
2019-06-20T13:20:04.709Z,46.16
2019-06-20T13:25:11.699Z,47.34
2019-06-20T13:30:19.289Z,47.27
2019-06-20T13:35:25.616Z,46.26
2019-06-20T13:40:31.865Z,46.29
2019-06-20T13:45:39.603Z,47.59
2019-06-20T13:50:47.350Z,48.94
2019-06-20T13:55:53.870Z,47.87
2019-06-20T14:01:00.050Z,50.51
2019-06-20T14:06:06.804Z,55.88
2019-06-20T14:11:13.053Z,59.49
2019-06-20T14:16:19.087Z,64.31
2019-06-20T14:21:25.271Z,65.94
2019-06-20T14:26:31.347Z,67.06
2019-06-20T14:31:37.712Z,66.12
2019-06-20T14:36:44.745Z,66.22
2019-06-20T14:41:51.711Z,65.76
2019-06-20T14:46:59.463Z,67.46
2019-06-20T14:52:05.718Z,67.67
2019-06-20T14:57:11.671Z,67.93
2019-06-20T15:02:18.665Z,68.48
2019-06-20T15:07:25.187Z,70.12
2019-06-20T15:12:31.738Z,69.77
2019-06-20T15:17:38.006Z,68.89
2019-06-20T15:22:46.782Z,69.26
2019-06-20T15:27:53.903Z,69.46
2019-06-20T15:33:09.709Z,69.85
2019-06-20T15:38:07.320Z,69.20
2019-06-20T15:43:13.315Z,70.11
2019-06-20T15:48:19.399Z,69.20
2019-06-20T15:53:25.428Z,69.02
2019-06-20T15:58:32.772Z,70.12
2019-06-20T16:03:38.944Z,73.00
2019-06-20T16:08:45.184Z,72.31
2019-06-20T16:13:51.387Z,72.77
2019-06-20T16:18:57.570Z,73.19
2019-06-20T16:24:03.613Z,73.52
2019-06-20T16:29:10.050Z,72.34
2019-06-20T16:34:16.392Z,77.88
2019-06-20T16:39:22.925Z,80.60
2019-06-20T16:44:28.967Z,82.02
2019-06-20T16:49:35.079Z,81.12
2019-06-20T16:54:41.279Z,81.82
2019-06-20T16:59:47.759Z,82.59
2019-06-20T17:04:56.444Z,83.66
2019-06-20T17:10:00.814Z,83.68
2019-06-20T17:15:08.044Z,83.50
2019-06-20T17:20:15.752Z,85.02
2019-06-20T17:25:22.336Z,84.68
2019-06-20T17:30:29.027Z,84.81
2019-06-20T17:35:36.224Z,83.21
2019-06-20T17:40:42.401Z,81.06
2019-06-20T17:45:48.569Z,80.02
2019-06-20T17:50:54.524Z,80.34
2019-06-20T17:56:00.838Z,82.47
2019-06-20T18:01:07.288Z,81.22
2019-06-20T18:06:13.265Z,81.66
2019-06-20T18:11:19.855Z,83.01
2019-06-20T18:16:26.111Z,83.20
2019-06-20T18:21:32.202Z,83.38
2019-06-20T18:26:38.583Z,83.56
2019-06-20T18:31:44.654Z,83.24
2019-06-20T18:36:50.625Z,83.25
2019-06-20T18:41:57.310Z,83.45
2019-06-20T18:47:03.521Z,83.62
2019-06-20T18:52:09.816Z,83.34
2019-06-20T18:57:16.965Z,83.83
2019-06-20T19:02:23.196Z,83.94
2019-06-20T19:07:29.459Z,84.40
2019-06-20T19:12:35.593Z,84.07
2019-06-20T19:17:41.695Z,83.19
2019-06-20T19:22:47.739Z,83.40
2019-06-20T19:27:53.972Z,83.14
2019-06-20T19:32:59.985Z,83.45
2019-06-20T19:38:06.285Z,83.72
2019-06-20T19:43:12.649Z,83.98
2019-06-20T19:48:19.132Z,83.83
2019-06-20T19:53:25.207Z,83.96
2019-06-20T19:58:31.287Z,81.84
2019-06-20T20:03:37.453Z,82.55
2019-06-20T20:08:43.571Z,83.04
2019-06-20T20:13:49.862Z,83.43
2019-06-20T20:18:55.883Z,83.52
2019-06-20T20:24:01.884Z,80.95
2019-06-20T20:29:09.343Z,82.70
2019-06-20T20:34:15.628Z,83.36
2019-06-20T20:39:21.729Z,83.86
2019-06-20T20:44:27.665Z,83.75
2019-06-20T20:49:33.478Z,83.26
2019-06-20T20:54:39.490Z,82.25
2019-06-20T20:59:45.388Z,81.97
2019-06-20T21:04:51.363Z,81.57
2019-06-20T21:09:58.571Z,81.79
2019-06-20T21:15:07.487Z,80.44
2019-06-20T21:20:13.970Z,80.72
2019-06-20T21:25:19.944Z,81.21
2019-06-20T21:30:26.628Z,81.31
2019-06-20T21:35:32.716Z,82.49
2019-06-20T21:40:38.674Z,82.94
2019-06-20T21:45:45.058Z,82.13
2019-06-20T21:50:51.588Z,83.04
2019-06-20T21:55:57.710Z,83.09
2019-06-20T22:01:04.631Z,81.46
2019-06-20T22:06:23.204Z,81.29
2019-06-20T22:11:18.901Z,82.68
2019-06-20T22:16:24.870Z,83.22
2019-06-20T22:21:31.053Z,83.27
2019-06-20T22:26:37.122Z,84.23
2019-06-20T22:31:43.303Z,84.29
2019-06-20T22:36:49.266Z,84.27
2019-06-20T22:41:55.460Z,84.44
2019-06-20T22:47:01.759Z,83.93
2019-06-20T22:52:07.892Z,82.97
2019-06-20T22:57:13.764Z,83.69
2019-06-20T23:02:19.794Z,84.25
2019-06-20T23:07:25.808Z,84.31
2019-06-20T23:12:31.719Z,83.68
2019-06-20T23:17:37.679Z,82.08
2019-06-20T23:22:43.512Z,82.37
2019-06-20T23:27:49.489Z,82.04
2019-06-20T23:32:55.461Z,82.82
2019-06-20T23:38:01.427Z,82.29
2019-06-20T23:43:07.501Z,82.21
2019-06-20T23:48:13.470Z,82.62
2019-06-20T23:53:26.590Z,83.58
2019-06-20T23:58:32.588Z,83.65
